Time;durP1;ratioP1;P1;durP2;ratioP2;P2;SDS_P1;SDS_P2;PMS_P1;PMS_P2;Temp;Humidity;BMP_temperature;BMP_pressure;BME280_temperature;BME280_humidity;BME280_pressure;Samples;Min_cycle;Max_cycle;Signal;HPM_P1;HPM_P2
2021/09/12 00:01:49;;;;;;;42.17;24.73;;;18.20;98.30;;;;;;5142784;23;20436;-80
2021/09/12 00:03:52;;;;;;;35.33;22.60;;;18.20;98.30;;;;;;5150963;23;20479;-80
2021/09/12 00:05:55;;;;;;;35.60;22.90;;;18.20;98.30;;;;;;5142724;23;20803;-79
2021/09/12 00:08:00;;;;;;;37.30;23.13;;;18.20;98.30;;;;;;5142985;23;20439;-80
2021/09/12 00:10:04;;;;;;;34.83;23.00;;;18.20;98.30;;;;;;5142727;23;20766;-80
2021/09/12 00:12:08;;;;;;;36.07;25.27;;;18.20;98.30;;;;;;5142909;23;20447;-80
2021/09/12 00:14:11;;;;;;;34.67;23.10;;;18.20;98.30;;;;;;5142175;23;20425;-80
2021/09/12 00:16:14;;;;;;;35.23;23.20;;;18.20;98.30;;;;;;5142582;23;20441;-80
2021/09/12 00:18:17;;;;;;;38.73;23.77;;;18.20;98.30;;;;;;5142668;23;20531;-80
2021/09/12 00:20:20;;;;;;;36.10;23.30;;;18.20;98.30;;;;;;5142823;23;20432;-80
2021/09/12 00:22:23;;;;;;;36.57;23.83;;;18.20;98.30;;;;;;5142796;23;20451;-79
2021/09/12 00:24:27;;;;;;;33.67;22.40;;;18.20;98.30;;;;;;5142233;23;20444;-80
2021/09/12 00:26:30;;;;;;;34.97;24.00;;;18.20;98.30;;;;;;5142440;23;20428;-80
2021/09/12 00:28:33;;;;;;;38.90;25.80;;;18.20;98.30;;;;;;5142530;23;20420;-80
2021/09/12 00:30:36;;;;;;;34.90;23.53;;;18.20;98.30;;;;;;5141886;23;20429;-80
2021/09/12 00:32:39;;;;;;;37.53;23.70;;;18.20;98.30;;;;;;5142471;23;20727;-79
2021/09/12 00:34:42;;;;;;;32.03;23.00;;;18.20;98.30;;;;;;5141830;23;20921;-80
2021/09/12 00:36:45;;;;;;;37.40;23.70;;;18.20;98.30;;;;;;5142680;23;20428;-80
2021/09/12 00:38:48;;;;;;;36.27;22.80;;;18.20;98.30;;;;;;5141830;23;20448;-79
2021/09/12 00:40:57;;;;;;;36.53;22.93;;;18.20;98.30;;;;;;5142475;23;20914;-79
2021/09/12 00:42:59;;;;;;;35.87;24.43;;;18.20;98.30;;;;;;5142502;23;20413;-79
2021/09/12 00:45:03;;;;;;;31.47;22.00;;;18.20;98.30;;;;;;5141488;23;20449;-79
2021/09/12 00:47:09;;;;;;;30.57;21.27;;;18.20;98.30;;;;;;5142642;23;20956;-80
2021/09/12 00:49:12;;;;;;;33.10;22.37;;;18.20;98.30;;;;;;5150324;23;20402;-79
2021/09/12 00:51:15;;;;;;;36.93;23.93;;;18.20;98.30;;;;;;5150711;23;20428;-80
2021/09/12 00:53:20;;;;;;;35.97;23.33;;;18.10;98.30;;;;;;5142195;23;20976;-80
2021/09/12 00:55:23;;;;;;;32.23;22.13;;;18.10;98.30;;;;;;5150144;23;20448;-80
2021/09/12 00:57:27;;;;;;;36.90;23.00;;;18.20;98.30;;;;;;5142134;23;20482;-80
2021/09/12 00:59:30;;;;;;;33.80;22.23;;;18.10;98.30;;;;;;5142312;23;20957;-80
2021/09/12 01:01:34;;;;;;;29.60;19.97;;;18.10;98.30;;;;;;5141920;23;20429;-80
2021/09/12 01:03:37;;;;;;;30.70;22.00;;;18.10;98.30;;;;;;5141344;23;20429;-80
2021/09/12 01:05:43;;;;;;;32.47;21.47;;;18.10;98.30;;;;;;5141519;23;20487;-79
2021/09/12 01:07:46;;;;;;;33.90;23.97;;;18.10;98.30;;;;;;5142065;23;20759;-79
2021/09/12 01:09:49;;;;;;;33.40;21.00;;;18.10;98.30;;;;;;5142006;23;20425;-80
2021/09/12 01:11:58;;;;;;;31.33;22.30;;;18.10;98.30;;;;;;5141999;23;20544;-80
2021/09/12 01:14:02;;;;;;;32.97;23.27;;;18.10;98.30;;;;;;5141778;23;20409;-80
2021/09/12 01:16:10;;;;;;;33.87;22.80;;;18.10;98.30;;;;;;5142338;23;20437;-80
2021/09/12 01:18:13;;;;;;;31.80;24.37;;;18.10;98.30;;;;;;5150485;23;20423;-79
2021/09/12 01:20:16;;;;;;;31.57;22.53;;;18.10;98.30;;;;;;5141646;23;20471;-80
2021/09/12 01:22:19;;;;;;;30.83;23.50;;;18.10;98.30;;;;;;5141878;23;20475;-79
2021/09/12 01:24:23;;;;;;;32.90;23.60;;;18.10;98.30;;;;;;5141566;23;20445;-80
2021/09/12 01:26:28;;;;;;;34.33;23.00;;;18.10;98.30;;;;;;5141701;23;20425;-80
2021/09/12 01:28:31;;;;;;;40.60;24.47;;;18.10;98.30;;;;;;5150643;23;20413;-80
2021/09/12 01:30:34;;;;;;;35.67;22.47;;;18.10;98.30;;;;;;5141562;23;20425;-80
2021/09/12 01:32:37;;;;;;;35.63;23.30;;;18.10;98.30;;;;;;5150124;23;20413;-80
2021/09/12 01:34:40;;;;;;;30.13;21.80;;;18.10;98.30;;;;;;5141337;23;20448;-79
2021/09/12 01:36:44;;;;;;;36.93;22.23;;;18.10;98.30;;;;;;5141408;23;20429;-80
2021/09/12 01:38:47;;;;;;;37.30;23.40;;;18.10;98.30;;;;;;5141837;23;20448;-80
2021/09/12 01:40:51;;;;;;;34.23;22.47;;;18.00;98.30;;;;;;5144187;23;20429;-79
2021/09/12 01:42:54;;;;;;;33.47;23.90;;;18.10;98.30;;;;;;5145890;23;20922;-80
2021/09/12 01:44:57;;;;;;;33.03;23.63;;;18.10;98.30;;;;;;5146918;23;20475;-80
2021/09/12 01:47:00;;;;;;;34.57;25.30;;;18.10;98.30;;;;;;5146389;23;20428;-79
2021/09/12 01:49:05;;;;;;;30.47;22.60;;;18.10;98.30;;;;;;5146645;23;20425;-80
2021/09/12 01:51:08;;;;;;;30.90;22.27;;;18.10;98.30;;;;;;5146175;23;20417;-80
2021/09/12 01:53:11;;;;;;;33.93;23.80;;;18.00;98.30;;;;;;5145941;23;20487;-80
2021/09/12 01:55:14;;;;;;;33.07;23.50;;;18.00;98.30;;;;;;5142519;23;20942;-80
2021/09/12 01:57:18;;;;;;;37.00;24.20;;;18.00;98.30;;;;;;5150719;23;20429;-81
2021/09/12 01:59:21;;;;;;;32.50;22.50;;;18.00;98.30;;;;;;5142838;23;20441;-80
2021/09/12 02:01:24;;;;;;;32.37;23.60;;;18.00;98.30;;;;;;5141926;23;20466;-80
2021/09/12 02:03:27;;;;;;;38.50;24.50;;;18.00;98.30;;;;;;5142083;23;20438;-80
2021/09/12 02:05:31;;;;;;;33.23;23.17;;;18.00;98.30;;;;;;5142088;23;20448;-80
2021/09/12 02:07:34;;;;;;;35.60;23.50;;;18.00;98.30;;;;;;5141738;23;20487;-80
2021/09/12 02:09:36;;;;;;;37.30;25.30;;;18.00;98.30;;;;;;5142050;23;20424;-80
2021/09/12 02:11:39;;;;;;;37.93;26.27;;;18.10;98.30;;;;;;5142004;23;20724;-80
2021/09/12 02:13:43;;;;;;;34.57;23.97;;;18.10;98.30;;;;;;5141723;23;20925;-80
2021/09/12 02:15:46;;;;;;;39.97;25.80;;;18.10;98.30;;;;;;5141954;23;20459;-80
2021/09/12 02:17:49;;;;;;;36.80;25.40;;;18.00;98.30;;;;;;5150113;23;20929;-80
2021/09/12 02:19:52;;;;;;;39.10;25.83;;;18.10;98.30;;;;;;5141692;23;20441;-80
2021/09/12 02:21:55;;;;;;;34.57;23.83;;;18.00;98.30;;;;;;5142134;23;20491;-80
2021/09/12 02:23:57;;;;;;;41.20;26.30;;;18.00;98.30;;;;;;5141441;23;20914;-80
2021/09/12 02:26:00;;;;;;;38.00;26.50;;;18.00;98.30;;;;;;5141678;23;20424;-80
2021/09/12 02:28:04;;;;;;;47.33;27.97;;;18.00;98.30;;;;;;5143392;23;21019;-80
2021/09/12 02:30:09;;;;;;;37.90;26.83;;;18.00;98.30;;;;;;5152270;23;20467;-80
2021/09/12 02:32:14;;;;;;;36.90;27.13;;;18.00;98.30;;;;;;5144086;23;20814;-80
2021/09/12 02:34:17;;;;;;;37.50;25.83;;;18.00;98.30;;;;;;5151487;23;20507;-80
2021/09/12 02:36:19;;;;;;;43.53;26.00;;;18.00;98.30;;;;;;5143840;23;20432;-80
2021/09/12 02:38:22;;;;;;;44.50;28.43;;;17.90;98.30;;;;;;5144122;23;20429;-80
2021/09/12 02:40:25;;;;;;;45.73;27.13;;;17.90;98.30;;;;;;5143850;23;20441;-80
2021/09/12 02:42:28;;;;;;;38.50;25.70;;;17.90;98.30;;;;;;5143005;23;20433;-80
2021/09/12 02:44:31;;;;;;;39.73;26.70;;;17.90;98.30;;;;;;5150339;23;20821;-80
2021/09/12 02:46:35;;;;;;;43.73;29.30;;;17.90;98.30;;;;;;5151295;23;20417;-80
2021/09/12 02:48:38;;;;;;;39.80;27.97;;;17.90;98.30;;;;;;5142948;23;20465;-81
2021/09/12 02:50:41;;;;;;;41.00;26.43;;;17.90;98.30;;;;;;5151708;23;20420;-80
2021/09/12 02:52:43;;;;;;;38.47;26.10;;;17.90;98.30;;;;;;5142526;23;20487;-80
2021/09/12 02:54:46;;;;;;;40.07;27.07;;;17.90;98.30;;;;;;5142363;23;20452;-80
2021/09/12 02:56:49;;;;;;;40.37;26.67;;;17.90;98.30;;;;;;5142515;23;20432;-80
2021/09/12 02:58:52;;;;;;;42.60;28.17;;;17.80;98.30;;;;;;5151053;23;20420;-80
2021/09/12 03:00:55;;;;;;;42.90;30.07;;;17.90;98.30;;;;;;5142637;23;20532;-80
2021/09/12 03:02:59;;;;;;;47.03;31.60;;;17.80;98.30;;;;;;5142621;23;20433;-80
2021/09/12 03:05:03;;;;;;;42.20;27.07;;;17.90;98.30;;;;;;5141689;23;20444;-80
2021/09/12 03:07:06;;;;;;;45.83;28.60;;;17.90;98.30;;;;;;5141378;23;20431;-80
2021/09/12 03:09:09;;;;;;;41.80;27.07;;;17.90;98.30;;;;;;5142304;23;20441;-79
2021/09/12 03:11:11;;;;;;;43.77;28.00;;;17.90;98.30;;;;;;5142857;23;20433;-79
2021/09/12 03:13:15;;;;;;;37.03;25.30;;;17.90;98.30;;;;;;5143005;23;20428;-80
2021/09/12 03:15:18;;;;;;;40.87;27.73;;;17.90;98.30;;;;;;5142986;23;20461;-80
2021/09/12 03:17:20;;;;;;;42.23;28.87;;;17.90;98.30;;;;;;5143112;23;20479;-79
2021/09/12 03:19:25;;;;;;;39.47;26.87;;;17.90;98.30;;;;;;5142626;23;20478;-80
2021/09/12 03:21:28;;;;;;;42.40;26.30;;;17.90;98.30;;;;;;5143677;23;20785;-80
2021/09/12 03:23:31;;;;;;;41.77;27.90;;;17.90;98.30;;;;;;5143237;23;20424;-80
2021/09/12 03:25:33;;;;;;;37.20;26.97;;;17.90;98.30;;;;;;5143218;23;20515;-80
2021/09/12 03:27:36;;;;;;;37.00;26.80;;;17.90;98.30;;;;;;5143690;23;20424;-80
2021/09/12 03:29:39;;;;;;;35.50;25.80;;;17.90;98.30;;;;;;5151338;23;20421;-80
2021/09/12 03:31:42;;;;;;;40.23;28.33;;;17.80;98.30;;;;;;5142271;23;20470;-80
2021/09/12 03:33:45;;;;;;;38.13;26.93;;;17.80;98.30;;;;;;5142837;23;20428;-80
2021/09/12 03:35:49;;;;;;;38.07;27.40;;;17.80;98.30;;;;;;5151984;23;20819;-78
2021/09/12 03:37:52;;;;;;;44.37;27.07;;;17.90;98.30;;;;;;5143183;23;20515;-79
2021/09/12 03:39:55;;;;;;;42.47;26.47;;;17.80;98.30;;;;;;5151064;23;20423;-78
2021/09/12 03:41:57;;;;;;;37.50;25.93;;;17.80;98.30;;;;;;5143392;23;20967;-78
2021/09/12 03:44:01;;;;;;;40.03;28.47;;;17.80;98.30;;;;;;5142714;23;20424;-78
2021/09/12 03:46:04;;;;;;;45.43;28.20;;;17.70;98.30;;;;;;5143212;23;20432;-81
2021/09/12 03:48:07;;;;;;;43.90;26.30;;;17.70;98.30;;;;;;5143468;23;20425;-78
2021/09/12 03:50:11;;;;;;;40.53;27.50;;;17.70;98.30;;;;;;5143578;23;20508;-79
2021/09/12 03:52:15;;;;;;;40.53;27.87;;;17.70;98.30;;;;;;5143062;23;20918;-77
2021/09/12 03:54:18;;;;;;;42.10;26.40;;;17.70;98.30;;;;;;5142420;23;20455;-79
2021/09/12 03:56:21;;;;;;;40.77;27.57;;;17.60;98.30;;;;;;5143348;23;20435;-80
2021/09/12 03:58:24;;;;;;;43.93;28.10;;;17.60;98.30;;;;;;5142905;23;20433;-78
2021/09/12 04:00:26;;;;;;;42.70;27.87;;;17.70;98.30;;;;;;5142831;23;20445;-78
2021/09/12 04:02:29;;;;;;;41.83;29.03;;;17.60;98.30;;;;;;5142863;23;20479;-81
2021/09/12 04:04:32;;;;;;;39.90;27.57;;;17.60;98.30;;;;;;5142366;23;20532;-78
2021/09/12 04:06:35;;;;;;;43.47;27.93;;;17.60;98.30;;;;;;5142834;23;20464;-78
2021/09/12 04:08:40;;;;;;;44.33;28.50;;;17.60;98.30;;;;;;5142726;23;20906;-79
2021/09/12 04:10:42;;;;;;;44.00;29.47;;;17.60;98.30;;;;;;5142805;23;20914;-78
2021/09/12 04:12:45;;;;;;;41.77;28.03;;;17.60;98.30;;;;;;5142491;23;20425;-78
2021/09/12 04:14:49;;;;;;;40.47;28.37;;;17.50;98.30;;;;;;5142066;23;20984;-78
2021/09/12 04:16:51;;;;;;;42.73;28.67;;;17.50;98.30;;;;;;5142994;23;20417;-78
2021/09/12 04:18:54;;;;;;;40.07;27.27;;;17.50;98.30;;;;;;5143075;23;20429;-78
2021/09/12 04:20:57;;;;;;;47.33;29.70;;;17.50;98.30;;;;;;5142520;23;20448;-78
2021/09/12 04:23:00;;;;;;;45.50;29.40;;;17.50;98.30;;;;;;5142336;23;20435;-80
2021/09/12 04:25:05;;;;;;;48.77;30.20;;;17.50;98.30;;;;;;5142191;23;20452;-81
2021/09/12 04:27:09;;;;;;;43.20;27.10;;;17.40;98.30;;;;;;5142931;23;20933;-78
2021/09/12 04:29:11;;;;;;;45.67;28.17;;;17.50;98.30;;;;;;5143059;23;20435;-78
2021/09/12 04:31:14;;;;;;;52.03;32.20;;;17.40;98.30;;;;;;5142098;23;20512;-78
2021/09/12 04:33:17;;;;;;;48.00;30.90;;;17.40;98.30;;;;;;5150895;23;20432;-78
2021/09/12 04:35:20;;;;;;;49.43;30.43;;;17.40;98.30;;;;;;5142042;23;20445;-77
2021/09/12 04:37:23;;;;;;;50.73;31.90;;;17.40;98.30;;;;;;5142503;23;20744;-78
2021/09/12 04:39:26;;;;;;;49.70;31.53;;;17.40;98.30;;;;;;5151221;23;20430;-78
2021/09/12 04:41:30;;;;;;;50.73;31.50;;;17.40;98.30;;;;;;5142021;23;20456;-78
2021/09/12 04:43:33;;;;;;;49.80;30.40;;;17.40;98.30;;;;;;5142243;23;20428;-78
2021/09/12 04:45:35;;;;;;;48.23;31.13;;;17.40;98.30;;;;;;5142497;23;20453;-78
2021/09/12 04:47:38;;;;;;;49.63;31.93;;;17.50;98.30;;;;;;5143085;23;20429;-80
2021/09/12 04:49:41;;;;;;;49.87;31.73;;;17.50;98.30;;;;;;5151074;23;20421;-78
2021/09/12 04:51:44;;;;;;;45.90;29.10;;;17.40;98.30;;;;;;5141519;23;20435;-78
2021/09/12 04:53:47;;;;;;;50.23;31.30;;;17.40;98.30;;;;;;5141094;23;20461;-79
2021/09/12 04:55:50;;;;;;;45.60;30.00;;;17.40;98.30;;;;;;5141764;23;20453;-78
2021/09/12 04:57:54;;;;;;;45.77;30.33;;;17.40;98.30;;;;;;5141804;23;20435;-79
2021/09/12 04:59:57;;;;;;;48.43;28.10;;;17.50;98.30;;;;;;5142313;23;20475;-79
2021/09/12 05:02:00;;;;;;;45.63;30.77;;;17.40;98.30;;;;;;5143502;23;20950;-77
2021/09/12 05:04:03;;;;;;;45.53;28.83;;;17.50;98.30;;;;;;5143070;23;21046;-78
2021/09/12 05:06:06;;;;;;;51.03;31.83;;;17.50;98.30;;;;;;5143438;23;20513;-78
2021/09/12 05:08:09;;;;;;;47.30;30.23;;;17.50;98.30;;;;;;5143606;23;20532;-81
2021/09/12 05:10:12;;;;;;;46.70;31.07;;;17.50;98.30;;;;;;5142962;23;20429;-78
2021/09/12 05:12:15;;;;;;;46.73;29.70;;;17.50;98.30;;;;;;5142497;23;20429;-78
2021/09/12 05:14:19;;;;;;;41.67;27.83;;;17.40;98.30;;;;;;5142168;23;20448;-78
2021/09/12 05:16:22;;;;;;;46.57;30.13;;;17.50;98.30;;;;;;5142410;23;20413;-78
2021/09/12 05:18:25;;;;;;;43.03;29.90;;;17.50;98.30;;;;;;5142583;23;20483;-78
2021/09/12 05:20:28;;;;;;;43.33;28.67;;;17.50;98.30;;;;;;5142367;23;20432;-78
2021/09/12 05:22:31;;;;;;;49.03;30.57;;;17.50;98.30;;;;;;5141846;23;20445;-78
2021/09/12 05:24:33;;;;;;;49.53;30.40;;;17.50;98.30;;;;;;5141958;23;20452;-79
2021/09/12 05:26:36;;;;;;;48.07;31.10;;;17.50;98.30;;;;;;5150578;23;20429;-78
2021/09/12 05:28:39;;;;;;;50.53;30.70;;;17.50;98.30;;;;;;5141479;23;20440;-78
2021/09/12 05:30:43;;;;;;;45.00;30.70;;;17.50;98.30;;;;;;5150541;23;20423;-78
2021/09/12 05:32:47;;;;;;;49.00;29.20;;;17.50;98.30;;;;;;5142099;23;20421;-80
2021/09/12 05:34:51;;;;;;;48.33;30.40;;;17.50;98.30;;;;;;5150410;23;20459;-78
2021/09/12 05:36:54;;;;;;;50.73;30.50;;;17.50;98.30;;;;;;5141806;23;20440;-79
2021/09/12 05:38:56;;;;;;;51.03;30.87;;;17.50;98.30;;;;;;5142091;23;20429;-78
2021/09/12 05:40:59;;;;;;;58.20;30.40;;;17.50;98.30;;;;;;5142363;23;20911;-78
2021/09/12 05:43:02;;;;;;;53.57;30.40;;;17.60;98.30;;;;;;5151061;23;20478;-78
2021/09/12 05:45:07;;;;;;;49.33;26.83;;;17.50;98.30;;;;;;5142294;23;20449;-78
2021/09/12 05:47:12;;;;;;;46.70;30.27;;;17.60;98.30;;;;;;5142341;23;20478;-78
2021/09/12 05:49:14;;;;;;;49.00;31.10;;;17.60;98.30;;;;;;5142392;23;20432;-81
2021/09/12 05:51:17;;;;;;;50.20;31.43;;;17.60;98.30;;;;;;5142820;23;20496;-77
2021/09/12 05:53:21;;;;;;;50.67;30.57;;;17.60;98.30;;;;;;5142835;23;20435;-78
2021/09/12 05:55:24;;;;;;;49.93;31.40;;;17.70;98.30;;;;;;5142595;23;20449;-80
2021/09/12 05:57:28;;;;;;;52.47;32.80;;;17.70;98.30;;;;;;5142382;23;20975;-78
2021/09/12 05:59:31;;;;;;;57.10;33.33;;;17.70;98.30;;;;;;5142264;23;20798;-78
2021/09/12 06:01:34;;;;;;;47.13;29.50;;;17.70;98.30;;;;;;5141842;23;20445;-79
2021/09/12 06:03:39;;;;;;;50.40;32.90;;;17.70;98.30;;;;;;5141647;23;20432;-79
2021/09/12 06:05:42;;;;;;;46.17;30.43;;;17.70;98.30;;;;;;5141981;23;20452;-79
2021/09/12 06:07:45;;;;;;;46.87;30.53;;;17.70;98.30;;;;;;5141854;23;20429;-78
2021/09/12 06:09:47;;;;;;;54.60;31.70;;;17.70;98.30;;;;;;5149965;23;20424;-78
2021/09/12 06:11:51;;;;;;;47.10;30.97;;;17.70;98.30;;;;;;5142096;23;20427;-79
2021/09/12 06:13:54;;;;;;;50.23;30.57;;;17.70;98.30;;;;;;5141421;23;20895;-78
2021/09/12 06:15:57;;;;;;;53.43;30.30;;;17.70;98.30;;;;;;5141739;23;20475;-78
2021/09/12 06:18:00;;;;;;;53.50;30.97;;;17.70;98.30;;;;;;5142168;23;20751;-78
2021/09/12 06:20:05;;;;;;;49.60;31.50;;;17.70;98.30;;;;;;5141993;23;20425;-78
2021/09/12 06:22:08;;;;;;;48.60;29.73;;;17.80;98.30;;;;;;5141171;23;20445;-78
2021/09/12 06:24:11;;;;;;;50.47;32.60;;;17.80;98.30;;;;;;5141677;23;20429;-78
2021/09/12 06:26:14;;;;;;;49.13;32.70;;;17.80;98.30;;;;;;5142073;23;20433;-80
2021/09/12 06:28:17;;;;;;;47.80;28.70;;;17.80;98.30;;;;;;5142240;23;20801;-78
2021/09/12 06:30:20;;;;;;;48.90;30.07;;;17.80;98.30;;;;;;5141792;23;20906;-78
2021/09/12 06:32:23;;;;;;;43.93;29.50;;;17.80;98.30;;;;;;5142131;23;20425;-78
2021/09/12 06:34:26;;;;;;;49.13;31.23;;;17.80;98.30;;;;;;5141867;23;20499;-78
2021/09/12 06:36:30;;;;;;;47.53;30.40;;;17.90;98.30;;;;;;5141839;23;20433;-80
2021/09/12 06:38:33;;;;;;;48.57;31.27;;;17.90;98.30;;;;;;5141754;23;20731;-78
2021/09/12 06:40:36;;;;;;;44.80;28.37;;;17.90;98.30;;;;;;5141156;23;20747;-77
2021/09/12 06:42:39;;;;;;;45.50;29.67;;;17.90;98.30;;;;;;5149315;23;20944;-78
2021/09/12 06:44:42;;;;;;;47.67;30.77;;;17.90;98.30;;;;;;5141322;23;20453;-77
2021/09/12 06:46:44;;;;;;;43.20;29.70;;;17.90;98.30;;;;;;5141685;23;20433;-77
2021/09/12 06:48:47;;;;;;;42.87;29.30;;;17.90;98.30;;;;;;5141655;23;20429;-77
2021/09/12 06:50:52;;;;;;;44.30;28.33;;;17.90;98.30;;;;;;5141612;23;20548;-77
2021/09/12 06:52:56;;;;;;;44.10;29.03;;;17.90;98.30;;;;;;5141196;23;20429;-77
2021/09/12 06:54:59;;;;;;;46.90;29.77;;;17.90;98.30;;;;;;5141257;23;21000;-78
2021/09/12 06:57:07;;;;;;;48.87;28.80;;;17.90;98.30;;;;;;5149346;23;20458;-79
2021/09/12 06:59:10;;;;;;;46.87;28.63;;;17.90;98.30;;;;;;5150014;23;20507;-78
2021/09/12 07:01:13;;;;;;;41.60;29.17;;;17.90;98.30;;;;;;5149791;23;20456;-80
2021/09/12 07:03:16;;;;;;;46.00;28.03;;;17.90;98.30;;;;;;5149992;23;20941;-78
2021/09/12 07:05:19;;;;;;;47.30;33.17;;;17.90;98.30;;;;;;5141232;23;20970;-78
2021/09/12 07:07:22;;;;;;;38.13;26.10;;;17.90;98.30;;;;;;5141580;23;20498;-77
2021/09/12 07:09:26;;;;;;;38.83;26.10;;;17.90;98.30;;;;;;5141000;23;20433;-78
2021/09/12 07:11:29;;;;;;;42.80;27.73;;;17.90;98.30;;;;;;5141403;23;20758;-78
2021/09/12 07:13:32;;;;;;;41.30;25.97;;;17.90;98.30;;;;;;5141635;23;20460;-78
2021/09/12 07:15:39;;;;;;;43.17;26.07;;;17.90;98.30;;;;;;5142965;23;20474;-78
2021/09/12 07:17:42;;;;;;;39.87;27.30;;;17.90;98.30;;;;;;5142837;23;20460;-79
2021/09/12 07:19:45;;;;;;;38.03;25.93;;;18.00;98.30;;;;;;5142794;23;20432;-78
2021/09/12 07:21:48;;;;;;;40.47;26.50;;;18.00;98.30;;;;;;5151081;23;20532;-78
2021/09/12 07:23:51;;;;;;;37.07;25.80;;;18.00;98.30;;;;;;5142281;23;20452;-79
2021/09/12 07:25:55;;;;;;;38.97;24.73;;;18.10;98.30;;;;;;5150242;23;20448;-79
2021/09/12 07:27:58;;;;;;;36.97;25.63;;;18.10;98.30;;;;;;5150577;23;20431;-79
2021/09/12 07:30:01;;;;;;;35.63;25.63;;;18.10;98.30;;;;;;5142339;23;20429;-80
2021/09/12 07:32:05;;;;;;;34.27;24.43;;;18.10;98.30;;;;;;5142585;23;20436;-79
2021/09/12 07:34:08;;;;;;;29.90;22.70;;;18.10;98.30;;;;;;5142012;23;20424;-79
2021/09/12 07:36:11;;;;;;;35.20;23.33;;;18.10;98.30;;;;;;5142609;23;20790;-78
2021/09/12 07:38:14;;;;;;;37.87;24.93;;;18.20;98.30;;;;;;5150619;23;20420;-78
2021/09/12 07:40:17;;;;;;;34.87;23.87;;;18.30;98.30;;;;;;5142441;23;20433;-78
2021/09/12 07:42:21;;;;;;;36.70;25.43;;;18.30;98.30;;;;;;5142288;23;20447;-79
2021/09/12 07:44:24;;;;;;;28.87;22.03;;;18.30;98.30;;;;;;5141530;23;20449;-81
2021/09/12 07:46:27;;;;;;;31.83;22.10;;;18.30;98.30;;;;;;5150444;23;20424;-80
2021/09/12 07:48:30;;;;;;;34.93;23.53;;;18.30;98.30;;;;;;5142481;23;20750;-79
2021/09/12 07:50:33;;;;;;;33.63;23.13;;;18.30;98.30;;;;;;5142174;23;20432;-79
2021/09/12 07:52:36;;;;;;;32.40;21.67;;;18.30;98.30;;;;;;5142461;23;20432;-79
2021/09/12 07:54:39;;;;;;;29.73;21.60;;;18.40;98.30;;;;;;5141874;23;20449;-82
2021/09/12 07:56:45;;;;;;;31.97;21.87;;;18.40;98.30;;;;;;5142469;23;20413;-79
2021/09/12 07:58:50;;;;;;;29.70;22.27;;;18.40;98.30;;;;;;5142343;23;20425;-78
2021/09/12 08:00:52;;;;;;;28.93;22.43;;;18.40;98.30;;;;;;5142113;23;20424;-78
2021/09/12 08:02:55;;;;;;;29.83;22.10;;;18.40;98.30;;;;;;5142159;23;20736;-78
2021/09/12 08:04:59;;;;;;;26.50;21.27;;;18.50;98.30;;;;;;5141762;23;20460;-80
2021/09/12 08:07:02;;;;;;;25.03;20.80;;;18.50;98.30;;;;;;5142267;23;20910;-78
2021/09/12 08:09:05;;;;;;;26.77;20.53;;;18.60;98.30;;;;;;5141840;23;20440;-79
2021/09/12 08:11:08;;;;;;;24.80;19.47;;;18.60;98.30;;;;;;5142041;23;20941;-78
2021/09/12 08:13:11;;;;;;;27.67;20.40;;;18.70;98.30;;;;;;5142138;23;20891;-80
2021/09/12 08:15:15;;;;;;;21.60;18.43;;;18.90;98.30;;;;;;5141648;23;20461;-79
2021/09/12 08:17:18;;;;;;;20.93;18.37;;;19.00;98.30;;;;;;5142214;23;20425;-79
2021/09/12 08:19:21;;;;;;;21.80;17.00;;;19.10;98.30;;;;;;5142096;23;20433;-78
2021/09/12 08:21:24;;;;;;;24.50;18.00;;;19.20;98.30;;;;;;5142241;23;20953;-79
2021/09/12 08:23:27;;;;;;;23.50;18.30;;;19.20;98.30;;;;;;5141592;23;20441;-80
2021/09/12 08:25:30;;;;;;;24.20;19.10;;;19.20;98.30;;;;;;5141550;23;20453;-80
2021/09/12 08:27:33;;;;;;;22.10;17.97;;;19.30;98.30;;;;;;5150619;23;20895;-79
2021/09/12 08:29:35;;;;;;;21.27;17.07;;;19.50;98.30;;;;;;5150091;23;20425;-78
2021/09/12 08:31:40;;;;;;;24.80;18.63;;;19.60;98.30;;;;;;5141871;23;20424;-80
2021/09/12 08:33:43;;;;;;;24.33;19.23;;;19.60;98.30;;;;;;5141480;23;20758;-79
2021/09/12 08:35:46;;;;;;;24.40;18.10;;;19.70;98.30;;;;;;5150051;23;20441;-79
2021/09/12 08:37:49;;;;;;;21.60;16.97;;;19.60;98.30;;;;;;5149584;23;20453;-80
2021/09/12 08:40:07;;;;;;;23.93;17.03;;;19.70;98.30;;;;;;5139489;23;20428;-79
2021/09/12 08:42:14;;;;;;;23.20;17.70;;;19.80;98.30;;;;;;5141554;23;20491;-79
2021/09/12 08:44:19;;;;;;;23.13;17.37;;;19.70;98.30;;;;;;5141011;23;20491;-78
2021/09/12 08:46:22;;;;;;;21.37;17.40;;;19.70;98.30;;;;;;5141848;23;20429;-80
2021/09/12 08:48:26;;;;;;;20.73;16.40;;;19.80;98.30;;;;;;5141762;23;20437;-80
2021/09/12 08:50:31;;;;;;;22.33;16.67;;;19.80;98.30;;;;;;5141836;23;20438;-81
2021/09/12 08:52:34;;;;;;;21.70;16.50;;;19.90;98.30;;;;;;5150152;23;20433;-78
2021/09/12 08:54:37;;;;;;;22.87;16.77;;;19.90;98.30;;;;;;5149392;23;20444;-78
2021/09/12 08:56:39;;;;;;;23.00;16.80;;;19.90;98.30;;;;;;5142618;23;20432;-81
2021/09/12 08:58:42;;;;;;;23.50;16.40;;;19.90;98.30;;;;;;5143665;23;20429;-80
2021/09/12 09:00:46;;;;;;;19.27;15.93;;;19.90;98.30;;;;;;5141586;23;20429;-81
2021/09/12 09:02:50;;;;;;;20.07;16.10;;;19.80;98.30;;;;;;5150495;23;20512;-82
2021/09/12 09:05:03;;;;;;;23.37;17.37;;;19.70;98.30;;;;;;5141105;23;20818;-80
2021/09/12 09:07:08;;;;;;;20.90;16.87;;;19.80;98.30;;;;;;5150760;23;20847;-81
2021/09/12 09:09:11;;;;;;;23.43;18.00;;;19.80;98.30;;;;;;5150733;23;20417;-81
2021/09/12 09:11:14;;;;;;;21.00;17.80;;;19.70;98.30;;;;;;5141165;23;20529;-82
2021/09/12 09:13:29;;;;;;;24.03;17.80;;;19.70;98.30;;;;;;5141779;23;20437;-82
2021/09/12 09:15:32;;;;;;;20.80;17.50;;;19.70;98.30;;;;;;5141390;23;20457;-82
2021/09/12 09:17:37;;;;;;;24.80;17.40;;;19.70;98.30;;;;;;5149779;23;20834;-81
2021/09/12 09:19:51;;;;;;;20.97;16.80;;;19.70;98.30;;;;;;5141472;23;20512;-83
2021/09/12 11:41:50;;;;;;;11.60;10.40;;;22.40;98.30;;;;;;4979613;23;20500;-85
2021/09/12 11:51:32;;;;;;;10.40;9.40;;;22.60;98.30;;;;;;5053550;23;20957;-85
2021/09/12 14:03:35;;;;;;;5.60;3.77;;;21.00;98.30;;;;;;4844092;24;20401;-82
2021/09/12 14:06:00;;;;;;;5.77;4.47;;;20.60;98.30;;;;;;4834454;24;20653;-82
2021/09/12 14:08:47;;;;;;;5.70;4.00;;;20.50;98.30;;;;;;4820380;24;20464;-83
2021/09/12 15:40:37;;;;;;;3.50;2.90;;;20.20;98.30;;;;;;5147320;22;20451;-82
2021/09/12 15:43:02;;;;;;;5.40;3.83;;;20.10;98.30;;;;;;5168375;23;20412;-82
2021/09/12 15:45:18;;;;;;;6.40;3.77;;;20.00;98.30;;;;;;5165070;23;20447;-82
2021/09/12 16:43:55;;;;;;;4.33;3.90;;;19.40;98.30;;;;;;4865160;24;20483;-85
2021/09/12 16:46:26;;;;;;;3.50;3.20;;;19.40;98.30;;;;;;4930988;24;20454;-84
2021/09/12 16:48:34;;;;;;;6.93;3.80;;;19.40;98.30;;;;;;4973193;23;20465;-82
2021/09/12 16:50:39;;;;;;;3.90;3.50;;;19.40;98.30;;;;;;5025246;23;20461;-82
2021/09/12 16:52:46;;;;;;;3.80;3.50;;;19.40;98.30;;;;;;5025546;23;20995;-82
2021/09/12 16:54:51;;;;;;;7.10;3.60;;;19.50;98.30;;;;;;5024771;23;20480;-82
2021/09/12 16:56:57;;;;;;;3.70;3.10;;;19.50;98.30;;;;;;5025448;23;20437;-82
2021/09/12 16:59:04;;;;;;;4.23;2.83;;;19.40;98.30;;;;;;5025427;23;20434;-82
2021/09/12 17:01:08;;;;;;;3.63;3.33;;;19.40;98.30;;;;;;5032153;23;20433;-82
2021/09/12 17:03:11;;;;;;;3.20;2.83;;;19.40;98.30;;;;;;5101355;23;20427;-81
2021/09/12 17:05:14;;;;;;;5.33;3.03;;;19.30;98.30;;;;;;5099275;23;20454;-82
2021/09/12 17:07:17;;;;;;;4.93;2.97;;;19.30;98.30;;;;;;5097962;23;20518;-82
2021/09/12 17:09:20;;;;;;;3.73;2.90;;;19.20;98.30;;;;;;5168857;23;20459;-82
2021/09/12 17:11:24;;;;;;;4.67;3.43;;;19.20;98.30;;;;;;5174721;23;20510;-82
2021/09/12 17:13:27;;;;;;;5.20;4.13;;;19.20;98.30;;;;;;5175144;23;20428;-82
2021/09/12 17:15:31;;;;;;;4.27;3.43;;;19.20;98.30;;;;;;5175344;23;20424;-83
2021/09/12 17:17:34;;;;;;;4.50;2.80;;;19.20;98.30;;;;;;5174954;23;20466;-81
2021/09/12 17:19:37;;;;;;;5.10;2.90;;;19.20;98.30;;;;;;5175108;23;20439;-81
2021/09/12 17:21:40;;;;;;;4.70;2.60;;;19.10;98.30;;;;;;5167112;23;20435;-81
2021/09/12 17:23:43;;;;;;;6.87;3.37;;;19.10;98.30;;;;;;5174985;23;20424;-81
2021/09/12 17:25:46;;;;;;;4.80;3.73;;;19.00;98.30;;;;;;5167014;23;20968;-81
2021/09/12 17:27:50;;;;;;;6.40;3.43;;;19.00;98.30;;;;;;5167193;23;20431;-81
2021/09/12 17:29:52;;;;;;;8.67;4.87;;;19.00;98.30;;;;;;5166803;23;20451;-81
2021/09/12 17:31:57;;;;;;;8.20;3.20;;;19.00;98.30;;;;;;5168441;23;20676;-81
2021/09/12 17:34:00;;;;;;;5.40;3.90;;;18.90;98.30;;;;;;5166151;23;20459;-81